createdAt,value
2018-04-15T00:00:30.600Z,13.01
2018-04-15T00:01:30.789Z,12.86
2018-04-15T00:02:30.960Z,13.01
2018-04-15T00:03:31.160Z,13.00
2018-04-15T00:04:31.341Z,13.01
2018-04-15T00:05:31.528Z,13.01
2018-04-15T00:06:31.712Z,12.97
2018-04-15T00:07:31.894Z,13.04
2018-04-15T00:08:32.078Z,13.03
2018-04-15T00:09:32.263Z,12.87
2018-04-15T00:10:32.438Z,12.83
2018-04-15T00:11:32.624Z,12.79
2018-04-15T00:12:32.791Z,12.85
2018-04-15T00:13:32.969Z,12.87
2018-04-15T00:14:33.148Z,12.79
2018-04-15T00:15:33.320Z,12.87
2018-04-15T00:16:33.503Z,12.80
2018-04-15T00:17:33.687Z,12.87
2018-04-15T00:18:33.861Z,12.98
2018-04-15T00:19:34.039Z,13.00
2018-04-15T00:20:34.215Z,12.97
2018-04-15T00:21:34.402Z,12.91
2018-04-15T00:22:34.570Z,12.94
2018-04-15T00:23:34.751Z,12.95
2018-04-15T00:24:34.927Z,12.93
2018-04-15T00:25:35.103Z,12.86
2018-04-15T00:26:35.275Z,12.93
2018-04-15T00:27:35.445Z,12.86
2018-04-15T00:28:35.620Z,12.82
2018-04-15T00:29:35.801Z,12.82
2018-04-15T00:30:35.976Z,12.76
2018-04-15T00:31:36.146Z,12.80
2018-04-15T00:32:36.325Z,12.78
2018-04-15T00:33:36.507Z,12.80
2018-04-15T00:34:36.685Z,12.85
2018-04-15T00:35:36.857Z,12.79
2018-04-15T00:36:37.027Z,12.79
2018-04-15T00:37:37.221Z,12.87
2018-04-15T00:38:37.418Z,12.95
2018-04-15T00:39:37.591Z,12.87
2018-04-15T00:40:37.770Z,12.95
2018-04-15T00:41:37.942Z,13.00
2018-04-15T00:42:38.129Z,12.94
2018-04-15T00:43:38.314Z,13.08
2018-04-15T00:44:38.498Z,12.86
2018-04-15T00:45:38.667Z,13.00
2018-04-15T00:46:38.853Z,13.00
2018-04-15T00:47:39.029Z,13.00
2018-04-15T00:48:39.225Z,12.93
2018-04-15T00:49:39.400Z,12.93
2018-04-15T00:50:39.594Z,12.87
2018-04-15T00:51:39.776Z,12.80
2018-04-15T00:52:39.952Z,12.80
2018-04-15T00:53:40.125Z,12.75
2018-04-15T00:54:40.297Z,12.85
2018-04-15T00:55:40.476Z,12.68
2018-04-15T00:56:40.653Z,12.73
2018-04-15T00:57:40.835Z,12.85
2018-04-15T00:58:41.017Z,12.80
2018-04-15T00:59:41.192Z,12.79
2018-04-15T01:00:41.362Z,12.80
2018-04-15T01:01:41.585Z,12.85
2018-04-15T01:02:41.745Z,12.83
2018-04-15T01:03:41.923Z,12.85
2018-04-15T01:04:42.099Z,12.85
2018-04-15T01:05:42.285Z,12.85
2018-04-15T01:06:42.465Z,12.82
2018-04-15T01:07:42.647Z,12.79
2018-04-15T01:08:42.831Z,12.72
2018-04-15T01:09:43.046Z,12.68
2018-04-15T01:10:43.230Z,12.68
2018-04-15T01:11:43.414Z,12.68
2018-04-15T01:12:43.590Z,12.60
2018-04-15T01:13:43.789Z,12.60
2018-04-15T01:14:43.971Z,12.60
2018-04-15T01:15:44.151Z,12.55
2018-04-15T01:16:44.328Z,12.60
2018-04-15T01:17:44.508Z,12.61
2018-04-15T01:18:44.684Z,12.57
2018-04-15T01:19:44.868Z,12.47
2018-04-15T01:20:45.060Z,12.50
2018-04-15T01:21:45.237Z,12.42
2018-04-15T01:22:45.413Z,12.49
2018-04-15T01:23:45.628Z,12.49
2018-04-15T01:24:45.812Z,12.43
2018-04-15T01:25:45.990Z,12.39
2018-04-15T01:26:46.174Z,12.29
2018-04-15T01:27:46.358Z,12.37
2018-04-15T01:28:46.534Z,12.37
2018-04-15T01:29:46.708Z,12.31
2018-04-15T01:30:46.879Z,12.32
2018-04-15T01:31:47.056Z,12.37
2018-04-15T01:32:47.255Z,12.37
2018-04-15T01:33:47.434Z,12.29
2018-04-15T01:34:47.648Z,12.31
2018-04-15T01:35:47.842Z,12.29
2018-04-15T01:36:48.024Z,12.35
2018-04-15T01:37:48.196Z,12.25
2018-04-15T01:38:49.279Z,12.32
2018-04-15T01:39:48.478Z,12.25
2018-04-15T01:40:48.653Z,12.29
2018-04-15T01:41:48.847Z,12.20
2018-04-15T01:42:49.018Z,12.17
2018-04-15T01:43:49.206Z,12.13
2018-04-15T01:44:49.421Z,12.18
2018-04-15T01:45:49.577Z,12.18
2018-04-15T01:46:49.755Z,12.17
2018-04-15T01:47:49.931Z,12.13
2018-04-15T01:48:50.108Z,12.03
2018-04-15T01:49:50.284Z,12.10
2018-04-15T01:50:50.462Z,12.03
2018-04-15T01:51:50.637Z,12.07
2018-04-15T01:52:50.825Z,12.06
2018-04-15T01:53:51.003Z,12.02
2018-04-15T01:54:51.183Z,12.04
2018-04-15T01:55:51.373Z,11.94
2018-04-15T01:56:51.550Z,12.09
2018-04-15T01:57:51.738Z,12.03
2018-04-15T01:58:51.908Z,12.06
2018-04-15T01:59:52.088Z,12.00
2018-04-15T02:00:52.260Z,12.00
2018-04-15T02:01:52.438Z,12.00
2018-04-15T02:02:52.620Z,12.07
2018-04-15T02:03:52.789Z,12.04
2018-04-15T02:04:52.966Z,12.03
2018-04-15T02:05:53.144Z,12.06
2018-04-15T02:06:53.331Z,12.15
2018-04-15T02:07:53.514Z,12.15
2018-04-15T02:08:53.715Z,12.13
2018-04-15T02:09:53.875Z,12.07
2018-04-15T02:10:54.048Z,12.07
2018-04-15T02:11:54.223Z,12.18
2018-04-15T02:12:54.402Z,12.07
2018-04-15T02:13:54.577Z,12.18
2018-04-15T02:14:54.754Z,12.13
2018-04-15T02:15:54.931Z,12.15
2018-04-15T02:16:55.103Z,12.21
2018-04-15T02:17:55.278Z,12.13
2018-04-15T02:18:55.455Z,12.21
2018-04-15T02:19:55.637Z,12.06
2018-04-15T02:20:55.817Z,12.13
2018-04-15T02:21:55.993Z,12.20
2018-04-15T02:22:56.165Z,12.21
2018-04-15T02:23:56.337Z,12.12
2018-04-15T02:24:57.320Z,12.13
2018-04-15T02:25:56.710Z,12.21
2018-04-15T02:26:56.892Z,12.15
2018-04-15T02:27:57.080Z,12.25
2018-04-15T02:28:57.265Z,12.29
2018-04-15T02:29:57.450Z,12.31
2018-04-15T02:30:57.617Z,12.29
2018-04-15T02:31:57.796Z,12.27
2018-04-15T02:32:57.963Z,12.25
2018-04-15T02:33:58.145Z,12.27
2018-04-15T02:34:58.325Z,12.21
2018-04-15T02:35:58.501Z,12.25
2018-04-15T02:36:58.677Z,12.15
2018-04-15T02:37:58.842Z,12.17
2018-04-15T02:38:59.021Z,12.18
2018-04-15T02:39:59.211Z,12.12
2018-04-15T02:41:01.150Z,12.12
2018-04-15T02:41:59.592Z,12.12
2018-04-15T02:42:59.771Z,12.20
2018-04-15T02:44:01.732Z,12.07
2018-04-15T02:45:01.956Z,11.97
2018-04-15T02:46:01.139Z,12.06
2018-04-15T02:47:00.568Z,12.04
2018-04-15T02:48:00.742Z,12.00
2018-04-15T02:49:00.917Z,12.00
2018-04-15T02:50:01.109Z,11.99
2018-04-15T02:51:01.282Z,11.97
2018-04-15T02:52:03.280Z,12.00
2018-04-15T02:53:01.664Z,12.00
2018-04-15T02:54:01.842Z,11.94
2018-04-15T02:55:02.035Z,11.86
2018-04-15T02:56:02.200Z,11.84
2018-04-15T02:57:02.376Z,11.72
2018-04-15T02:58:02.559Z,11.75
2018-04-15T02:59:02.733Z,11.78
2018-04-15T03:00:02.912Z,11.72
2018-04-15T03:01:03.093Z,11.83
2018-04-15T03:02:03.279Z,11.70
2018-04-15T03:03:03.453Z,11.69
2018-04-15T03:04:03.629Z,11.66
2018-04-15T03:05:03.807Z,11.59
2018-04-15T03:06:03.991Z,11.55
2018-04-15T03:07:04.177Z,11.63
2018-04-15T03:08:04.345Z,11.51
2018-04-15T03:09:05.316Z,11.50
2018-04-15T03:10:04.734Z,11.55
2018-04-15T03:11:04.912Z,11.50
2018-04-15T03:12:05.087Z,11.52
2018-04-15T03:13:05.257Z,11.52
2018-04-15T03:14:05.437Z,11.52
2018-04-15T03:15:05.609Z,11.59
2018-04-15T03:16:05.782Z,11.65
2018-04-15T03:17:05.949Z,11.65
2018-04-15T03:18:06.121Z,11.60
2018-04-15T03:19:06.299Z,11.70
2018-04-15T03:20:06.474Z,11.75
2018-04-15T03:21:06.646Z,11.66
2018-04-15T03:22:06.828Z,11.68
2018-04-15T03:23:07.008Z,11.63
2018-04-15T03:24:07.188Z,11.59
2018-04-15T03:25:07.369Z,11.54
2018-04-15T03:26:07.538Z,11.55
2018-04-15T03:27:07.718Z,11.52
2018-04-15T03:28:07.896Z,11.50
2018-04-15T03:29:08.065Z,11.43
2018-04-15T03:30:08.242Z,11.45
2018-04-15T03:31:08.421Z,11.51
2018-04-15T03:32:08.595Z,11.52
2018-04-15T03:33:08.784Z,11.51
2018-04-15T03:34:08.959Z,11.55
2018-04-15T03:35:09.127Z,11.45
2018-04-15T03:36:09.303Z,11.52
2018-04-15T03:37:09.472Z,11.45
2018-04-15T03:38:09.650Z,11.44
2018-04-15T03:39:09.831Z,11.35
2018-04-15T03:40:10.004Z,11.35
2018-04-15T03:41:10.183Z,11.36
2018-04-15T03:42:10.353Z,11.29
2018-04-15T03:43:10.532Z,11.22
2018-04-15T03:44:10.705Z,11.25
2018-04-15T03:45:10.880Z,11.23
2018-04-15T03:46:11.053Z,11.23
2018-04-15T03:47:11.229Z,11.17
2018-04-15T03:48:11.403Z,11.26
2018-04-15T03:49:11.579Z,11.18
2018-04-15T03:50:11.763Z,11.17
2018-04-15T03:51:11.949Z,11.19
2018-04-15T03:52:12.121Z,11.14
2018-04-15T03:53:12.299Z,11.17
2018-04-15T03:54:12.477Z,11.14
2018-04-15T03:55:12.660Z,11.27
2018-04-15T03:56:12.833Z,11.26
2018-04-15T03:57:13.012Z,11.27
2018-04-15T03:58:13.189Z,11.22
2018-04-15T03:59:13.362Z,11.26
2018-04-15T04:00:13.539Z,11.30
2018-04-15T04:01:13.712Z,11.17
2018-04-15T04:02:13.898Z,11.25
2018-04-15T04:03:14.077Z,11.26
2018-04-15T04:04:14.244Z,11.17
2018-04-15T04:05:14.423Z,11.23
2018-04-15T04:06:14.603Z,11.11
2018-04-15T04:07:14.779Z,11.25
2018-04-15T04:08:14.955Z,11.17
2018-04-15T04:09:15.128Z,11.07
2018-04-15T04:10:15.308Z,11.11
2018-04-15T04:11:15.479Z,11.04
2018-04-15T04:12:15.664Z,11.10
2018-04-15T04:13:15.836Z,11.10
2018-04-15T04:14:16.012Z,11.07
2018-04-15T04:15:16.180Z,11.11
2018-04-15T04:16:16.356Z,11.07
2018-04-15T04:17:16.534Z,11.05
2018-04-15T04:18:16.716Z,11.08
2018-04-15T04:19:16.902Z,10.97
2018-04-15T04:20:17.072Z,11.07
2018-04-15T04:21:17.249Z,11.04
2018-04-15T04:22:17.436Z,11.00
2018-04-15T04:23:17.620Z,11.17
2018-04-15T04:24:17.791Z,11.10
2018-04-15T04:25:17.969Z,11.07
2018-04-15T04:26:18.141Z,11.05
2018-04-15T04:27:18.322Z,11.04
2018-04-15T04:28:18.501Z,10.99
2018-04-15T04:29:20.474Z,10.99
2018-04-15T04:30:18.906Z,11.05
2018-04-15T04:31:19.076Z,10.99
2018-04-15T04:32:19.248Z,10.97
2018-04-15T04:33:19.425Z,10.97
2018-04-15T04:34:19.602Z,10.96
2018-04-15T04:35:19.775Z,10.96
2018-04-15T04:36:19.965Z,11.08
2018-04-15T04:37:20.137Z,10.93
2018-04-15T04:38:20.327Z,11.17
2018-04-15T04:39:20.505Z,11.00
2018-04-15T04:40:20.714Z,11.14
2018-04-15T04:41:20.957Z,11.22
2018-04-15T04:42:21.601Z,11.11
2018-04-15T04:43:24.459Z,11.07
2018-04-15T04:44:24.008Z,11.04
2018-04-15T04:45:24.419Z,10.96
2018-04-15T04:46:23.136Z,11.02
2018-04-15T04:47:24.933Z,11.00
2018-04-15T04:48:24.369Z,10.94
2018-04-15T04:49:26.044Z,10.94
2018-04-15T04:50:25.030Z,10.96
2018-04-15T04:51:27.757Z,10.90
2018-04-15T04:52:25.854Z,10.79
2018-04-15T04:53:23.394Z,10.84
2018-04-15T04:54:23.288Z,10.76
2018-04-15T04:55:23.372Z,10.87
2018-04-15T04:56:23.532Z,10.86
2018-04-15T04:57:23.700Z,10.89
2018-04-15T04:58:23.872Z,10.94
2018-04-15T04:59:24.050Z,10.99
2018-04-15T05:00:24.238Z,11.05
2018-04-15T05:01:27.368Z,11.11
2018-04-15T05:02:24.615Z,11.26
2018-04-15T05:03:24.782Z,11.15
2018-04-15T05:04:24.960Z,11.27
2018-04-15T05:05:25.144Z,11.30
2018-04-15T05:06:25.330Z,11.36
2018-04-15T05:07:25.507Z,11.40
2018-04-15T05:08:25.684Z,11.37
2018-04-15T05:09:25.857Z,11.44
2018-04-15T05:10:26.037Z,11.48
2018-04-15T05:11:26.234Z,11.50
2018-04-15T05:12:26.416Z,11.45
2018-04-15T05:13:26.615Z,11.52
2018-04-15T05:14:26.772Z,11.52
2018-04-15T05:15:26.957Z,11.59
2018-04-15T05:16:27.127Z,11.51
2018-04-15T05:17:27.312Z,11.55
2018-04-15T05:18:27.487Z,11.59
2018-04-15T05:19:27.678Z,11.63
2018-04-15T05:20:27.870Z,11.65
2018-04-15T05:21:28.040Z,11.66
2018-04-15T05:22:28.223Z,11.62
2018-04-15T05:23:28.403Z,11.65
2018-04-15T05:24:28.608Z,11.68
2018-04-15T05:25:28.763Z,11.65
2018-04-15T05:26:28.940Z,11.70
2018-04-15T05:27:29.123Z,11.73
2018-04-15T05:28:29.306Z,11.75
2018-04-15T05:29:29.478Z,11.80
2018-04-15T05:30:29.655Z,11.84
2018-04-15T05:31:29.852Z,11.81
2018-04-15T05:32:30.030Z,11.83
2018-04-15T05:33:30.222Z,11.87
2018-04-15T05:34:30.401Z,12.06
2018-04-15T05:35:30.587Z,12.10
2018-04-15T05:36:30.757Z,12.04
2018-04-15T05:37:30.939Z,12.18
2018-04-15T05:38:31.110Z,12.17
2018-04-15T05:39:31.315Z,12.27
2018-04-15T05:40:31.475Z,12.29
2018-04-15T05:41:31.656Z,12.49
2018-04-15T05:42:31.823Z,12.53
2018-04-15T05:43:31.998Z,12.46
2018-04-15T05:44:32.181Z,12.60
2018-04-15T05:45:32.358Z,12.58
2018-04-15T05:46:32.536Z,12.55
2018-04-15T05:47:32.852Z,12.68
2018-04-15T05:48:32.865Z,12.70
2018-04-15T05:49:33.040Z,12.68
2018-04-15T05:50:33.226Z,12.75
2018-04-15T05:51:33.409Z,12.79
2018-04-15T05:52:33.591Z,12.80
2018-04-15T05:53:33.766Z,12.93
2018-04-15T05:54:33.946Z,12.97
2018-04-15T05:55:34.127Z,12.97
2018-04-15T05:56:34.303Z,12.87
2018-04-15T05:57:34.483Z,12.97
2018-04-15T05:58:34.660Z,13.00
2018-04-15T05:59:34.864Z,12.95
2018-04-15T06:00:35.004Z,13.05
2018-04-15T06:01:35.180Z,13.00
2018-04-15T06:02:35.361Z,12.98
2018-04-15T06:03:35.552Z,13.05
2018-04-15T06:04:35.726Z,13.01
2018-04-15T06:05:35.912Z,13.11
2018-04-15T06:06:36.093Z,13.23
2018-04-15T06:07:36.275Z,13.18
2018-04-15T06:08:36.459Z,13.20
2018-04-15T06:09:36.639Z,13.25
2018-04-15T06:10:36.810Z,13.16
2018-04-15T06:11:36.998Z,13.15
2018-04-15T06:12:37.174Z,13.13
2018-04-15T06:13:37.352Z,13.08
2018-04-15T06:14:37.532Z,13.18
2018-04-15T06:15:38.554Z,13.04
2018-04-15T06:16:37.883Z,13.15
2018-04-15T06:17:38.045Z,13.09
2018-04-15T06:18:38.225Z,13.19
2018-04-15T06:19:38.402Z,13.28
2018-04-15T06:20:38.579Z,13.33
2018-04-15T06:21:38.767Z,13.20
2018-04-15T06:22:38.943Z,13.09
2018-04-15T06:23:39.123Z,12.90
2018-04-15T06:24:39.344Z,12.60
2018-04-15T06:25:39.484Z,12.54
2018-04-15T06:26:39.656Z,12.62
2018-04-15T06:27:39.838Z,12.50
2018-04-15T06:28:40.016Z,12.64
2018-04-15T06:29:40.196Z,12.64
2018-04-15T06:30:40.375Z,12.42
2018-04-15T06:31:40.557Z,12.45
2018-04-15T06:32:40.729Z,12.61
2018-04-15T06:33:40.909Z,12.80
2018-04-15T06:34:41.091Z,12.80
2018-04-15T06:35:41.267Z,12.93
2018-04-15T06:36:41.477Z,12.98
2018-04-15T06:37:41.621Z,13.12
2018-04-15T06:38:41.796Z,13.28
2018-04-15T06:39:41.973Z,13.19
2018-04-15T06:40:42.150Z,13.33
2018-04-15T06:41:42.324Z,13.11
2018-04-15T06:42:42.498Z,13.33
2018-04-15T06:43:42.678Z,13.31
2018-04-15T06:44:42.851Z,13.49
2018-04-15T06:45:43.036Z,13.59
2018-04-15T06:46:43.214Z,13.67
2018-04-15T06:47:43.403Z,13.59
2018-04-15T06:48:43.597Z,13.70
2018-04-15T06:49:43.790Z,14.05
2018-04-15T06:50:43.982Z,14.44
2018-04-15T06:51:44.168Z,14.50
2018-04-15T06:52:44.345Z,14.41
2018-04-15T06:53:44.536Z,14.44
2018-04-15T06:54:44.705Z,14.37
2018-04-15T06:55:46.580Z,14.29
2018-04-15T06:56:45.352Z,14.23
2018-04-15T06:57:45.655Z,14.17
2018-04-15T06:58:45.457Z,14.36
2018-04-15T06:59:45.649Z,14.44
2018-04-15T07:00:45.823Z,14.48
2018-04-15T07:01:46.091Z,14.59
2018-04-15T07:02:46.130Z,14.66
2018-04-15T07:03:46.316Z,14.70
2018-04-15T07:04:46.543Z,14.78
2018-04-15T07:05:46.705Z,14.72
2018-04-15T07:06:46.885Z,14.68
2018-04-15T07:07:47.063Z,14.79
2018-04-15T07:08:47.239Z,14.82
2018-04-15T07:09:47.456Z,14.88
2018-04-15T07:10:47.755Z,14.88
2018-04-15T07:11:47.742Z,14.81
2018-04-15T07:12:48.074Z,14.72
2018-04-15T07:13:48.042Z,14.81
2018-04-15T07:14:48.290Z,14.65
2018-04-15T07:15:48.659Z,14.58
2018-04-15T07:16:48.897Z,14.62
2018-04-15T07:17:48.946Z,14.60
2018-04-15T07:18:49.885Z,14.60
2018-04-15T07:19:49.698Z,14.47
2018-04-15T07:20:51.085Z,14.50
2018-04-15T07:21:50.882Z,14.37
2018-04-15T07:22:51.254Z,14.48
2018-04-15T07:23:49.759Z,14.45
2018-04-15T07:24:51.549Z,14.41
2018-04-15T07:25:50.298Z,14.45
2018-04-15T07:26:50.567Z,14.43
2018-04-15T07:27:50.526Z,14.35
2018-04-15T07:28:50.761Z,14.41
2018-04-15T07:29:50.998Z,14.33
2018-04-15T07:30:50.911Z,14.36
2018-04-15T07:31:51.259Z,14.43
2018-04-15T07:32:53.029Z,14.43
2018-04-15T07:33:51.623Z,14.47
2018-04-15T07:34:51.631Z,14.51
2018-04-15T07:35:52.992Z,14.51
2018-04-15T07:36:52.007Z,14.62
2018-04-15T07:37:52.218Z,14.59
2018-04-15T07:38:52.385Z,14.54
2018-04-15T07:39:52.651Z,14.72
2018-04-15T07:40:52.789Z,14.65
2018-04-15T07:41:52.969Z,14.59
2018-04-15T07:42:53.163Z,14.77
2018-04-15T07:43:53.362Z,14.79
2018-04-15T07:44:53.545Z,14.92
2018-04-15T07:45:53.768Z,15.07
2018-04-15T07:46:53.921Z,15.09
2018-04-15T07:47:54.156Z,15.15
2018-04-15T07:48:54.351Z,15.27
2018-04-15T07:49:54.516Z,15.43
2018-04-15T07:50:54.882Z,15.57
2018-04-15T07:51:54.859Z,15.67
2018-04-15T07:52:55.061Z,15.70
2018-04-15T07:53:55.294Z,15.80
2018-04-15T07:54:55.463Z,15.75
2018-04-15T07:55:55.680Z,15.84
2018-04-15T07:56:55.867Z,15.91
2018-04-15T07:57:56.049Z,15.98
2018-04-15T07:58:56.240Z,16.16
2018-04-15T07:59:56.420Z,16.29
2018-04-15T08:00:57.831Z,16.35
2018-04-15T08:01:58.126Z,16.28
2018-04-15T08:02:57.356Z,16.29
2018-04-15T08:03:57.604Z,16.28
2018-04-15T08:04:57.432Z,16.23
2018-04-15T08:05:57.893Z,16.29
2018-04-15T08:06:57.721Z,16.31
2018-04-15T08:07:58.452Z,16.28
2018-04-15T08:08:58.128Z,16.28
2018-04-15T08:09:58.303Z,16.28
2018-04-15T08:10:58.499Z,16.28
2018-04-15T08:11:58.676Z,16.29
2018-04-15T08:12:58.851Z,16.23
2018-04-15T08:13:59.035Z,16.24
2018-04-15T08:14:59.217Z,16.16
2018-04-15T08:15:59.396Z,16.17
2018-04-15T08:16:59.591Z,16.10
2018-04-15T08:17:59.760Z,16.16
2018-04-15T08:19:00.087Z,16.05
2018-04-15T08:20:00.110Z,16.04
2018-04-15T08:21:00.292Z,15.95
2018-04-15T08:22:00.483Z,15.94
2018-04-15T08:23:00.661Z,15.88
2018-04-15T08:24:01.105Z,15.90
2018-04-15T08:25:01.023Z,15.83
2018-04-15T08:26:01.207Z,15.83
2018-04-15T08:27:01.627Z,15.82
2018-04-15T08:28:01.555Z,15.77
2018-04-15T08:29:01.774Z,15.79
2018-04-15T08:30:01.938Z,15.79
2018-04-15T08:31:01.992Z,15.91
2018-04-15T08:32:02.184Z,15.97
2018-04-15T08:33:02.633Z,15.90
2018-04-15T08:34:02.547Z,16.02
2018-04-15T08:35:02.730Z,16.13
2018-04-15T08:36:02.915Z,16.16
2018-04-15T08:37:03.094Z,16.43
2018-04-15T08:38:03.276Z,16.66
2018-04-15T08:39:03.469Z,16.91
2018-04-15T08:40:03.645Z,17.27
2018-04-15T08:41:05.436Z,17.59
2018-04-15T08:42:06.269Z,17.92
2018-04-15T08:43:05.386Z,18.10
2018-04-15T08:44:07.722Z,18.33
2018-04-15T08:45:04.701Z,18.37
2018-04-15T08:46:04.847Z,18.53
2018-04-15T08:47:05.322Z,18.77
2018-04-15T08:48:05.211Z,18.71
2018-04-15T08:49:05.355Z,19.12
2018-04-15T08:50:09.776Z,19.02
2018-04-15T08:51:08.110Z,18.70
2018-04-15T08:52:06.263Z,18.77
2018-04-15T08:53:07.051Z,19.02
2018-04-15T08:54:06.624Z,19.58
2018-04-15T08:55:06.988Z,20.28
2018-04-15T08:56:06.541Z,20.36
2018-04-15T08:57:06.809Z,20.65
2018-04-15T08:58:07.234Z,21.24
2018-04-15T08:59:07.113Z,21.62
2018-04-15T09:00:07.388Z,21.48
2018-04-15T09:01:07.407Z,21.46
2018-04-15T09:02:08.997Z,21.64
2018-04-15T09:03:07.553Z,21.62
2018-04-15T09:04:07.789Z,21.39
2018-04-15T09:05:09.625Z,21.58
2018-04-15T09:06:08.171Z,21.95
2018-04-15T09:07:08.247Z,22.62
2018-04-15T09:08:08.397Z,23.28
2018-04-15T09:09:08.784Z,23.41
2018-04-15T09:10:08.879Z,24.02
2018-04-15T09:11:09.169Z,24.57
2018-04-15T09:12:09.276Z,25.36
2018-04-15T09:13:09.388Z,24.98
2018-04-15T09:14:09.499Z,24.92
2018-04-15T09:15:09.619Z,24.88
2018-04-15T09:16:10.380Z,24.89
2018-04-15T09:17:10.037Z,25.04
2018-04-15T09:18:10.334Z,26.40
2018-04-15T09:19:10.371Z,27.48
2018-04-15T09:20:10.245Z,28.33
2018-04-15T09:21:10.435Z,28.72
2018-04-15T09:22:10.669Z,29.36
2018-04-15T09:23:10.997Z,29.93
2018-04-15T09:24:11.619Z,30.47
2018-04-15T09:25:11.691Z,31.09
2018-04-15T09:26:11.464Z,30.19
2018-04-15T09:27:11.646Z,30.32
2018-04-15T09:28:11.648Z,29.50
2018-04-15T09:29:11.848Z,29.60
2018-04-15T09:30:12.056Z,30.12
2018-04-15T09:31:12.232Z,30.92
2018-04-15T09:32:12.429Z,31.99
2018-04-15T09:33:12.658Z,33.19
2018-04-15T09:34:12.953Z,33.61
2018-04-15T09:35:13.047Z,33.57
2018-04-15T09:36:13.229Z,32.71
2018-04-15T09:37:13.424Z,32.30
2018-04-15T09:38:13.628Z,32.83
2018-04-15T09:39:13.816Z,33.61
2018-04-15T09:40:14.001Z,34.21
2018-04-15T09:41:14.205Z,34.16
2018-04-15T09:42:14.412Z,34.88
2018-04-15T09:43:14.639Z,34.96
2018-04-15T09:44:14.876Z,35.08
2018-04-15T09:45:15.069Z,35.45
2018-04-15T09:46:15.255Z,35.56
2018-04-15T09:47:15.449Z,35.34
2018-04-15T09:48:15.687Z,35.90
2018-04-15T09:49:15.847Z,36.09
2018-04-15T09:50:16.039Z,36.24
2018-04-15T09:51:16.230Z,36.39
2018-04-15T09:52:16.420Z,35.74
2018-04-15T09:53:16.612Z,35.51
2018-04-15T09:54:16.872Z,34.24
2018-04-15T09:55:17.090Z,33.62
2018-04-15T09:56:17.244Z,33.57
2018-04-15T09:57:17.505Z,33.90
2018-04-15T09:58:17.674Z,33.76
2018-04-15T09:59:17.870Z,33.37
2018-04-15T10:00:18.123Z,32.73
2018-04-15T10:01:18.295Z,32.03
2018-04-15T10:02:18.488Z,31.84
2018-04-15T10:03:18.682Z,31.39
2018-04-15T10:04:18.863Z,32.73
2018-04-15T10:05:19.067Z,31.37
2018-04-15T10:06:19.255Z,32.31
2018-04-15T10:07:19.449Z,33.22
2018-04-15T10:08:19.662Z,33.98
2018-04-15T10:09:19.851Z,34.48
2018-04-15T10:10:20.022Z,34.54
2018-04-15T10:11:20.943Z,34.67
2018-04-15T10:12:20.414Z,34.58
2018-04-15T10:13:20.674Z,34.23
2018-04-15T10:14:20.788Z,34.03
2018-04-15T10:15:20.977Z,34.39
2018-04-15T10:16:21.181Z,34.66
2018-04-15T10:17:21.367Z,34.20
2018-04-15T10:18:21.549Z,34.43
2018-04-15T10:19:21.742Z,33.83
2018-04-15T10:20:21.928Z,34.21
2018-04-15T10:21:22.122Z,34.54
2018-04-15T10:22:22.312Z,34.29
2018-04-15T10:23:22.509Z,34.66
2018-04-15T10:24:22.699Z,34.97
2018-04-15T10:25:22.878Z,35.27
2018-04-15T10:26:23.069Z,35.19
2018-04-15T10:27:23.260Z,35.12
2018-04-15T10:28:23.451Z,35.10
2018-04-15T10:29:23.728Z,34.90
2018-04-15T10:30:23.793Z,34.29
2018-04-15T10:31:23.991Z,33.39
2018-04-15T10:32:24.190Z,33.64
2018-04-15T10:33:24.384Z,33.89
2018-04-15T10:34:24.572Z,34.02
2018-04-15T10:35:24.761Z,33.96
2018-04-15T10:36:24.950Z,33.84
2018-04-15T10:37:25.152Z,34.10
2018-04-15T10:38:25.349Z,34.01
2018-04-15T10:39:25.576Z,33.74
2018-04-15T10:40:25.732Z,33.61
2018-04-15T10:41:25.923Z,33.30
2018-04-15T10:42:26.115Z,32.30
2018-04-15T10:43:26.320Z,32.64
2018-04-15T10:44:26.530Z,32.08
2018-04-15T10:45:26.724Z,31.36
2018-04-15T10:46:26.946Z,31.27
2018-04-15T10:47:27.164Z,31.37
2018-04-15T10:48:27.351Z,31.61
2018-04-15T10:49:27.539Z,31.96
2018-04-15T10:50:27.728Z,31.99
2018-04-15T10:51:27.915Z,31.99
2018-04-15T10:52:28.104Z,32.14
2018-04-15T10:53:28.288Z,32.16
2018-04-15T10:54:28.484Z,31.55
2018-04-15T10:55:28.681Z,30.73
2018-04-15T10:56:28.873Z,30.85
2018-04-15T10:57:29.118Z,31.00
2018-04-15T10:58:29.634Z,30.97
2018-04-15T10:59:29.948Z,30.83
2018-04-15T11:00:29.592Z,30.78
2018-04-15T11:01:29.779Z,29.91
2018-04-15T11:02:29.961Z,29.63
2018-04-15T11:03:30.170Z,28.57
2018-04-15T11:04:30.351Z,28.22
2018-04-15T11:05:30.568Z,27.10
2018-04-15T11:06:30.737Z,26.95
2018-04-15T11:07:30.932Z,26.92
2018-04-15T11:08:31.118Z,27.03
2018-04-15T11:09:31.311Z,27.15
2018-04-15T11:10:31.500Z,27.30
2018-04-15T11:11:31.687Z,26.95
2018-04-15T11:12:31.874Z,26.90
2018-04-15T11:13:33.990Z,26.97
2018-04-15T11:14:33.813Z,26.88
2018-04-15T11:15:32.457Z,26.70
2018-04-15T11:16:32.639Z,26.84
2018-04-15T11:17:32.842Z,26.21
2018-04-15T11:18:33.090Z,25.91
2018-04-15T11:19:33.914Z,25.66
2018-04-15T11:20:33.797Z,25.65
2018-04-15T11:21:33.587Z,25.32
2018-04-15T11:22:33.740Z,25.54
2018-04-15T11:23:33.935Z,25.65
2018-04-15T11:24:34.113Z,25.65
2018-04-15T11:25:34.336Z,25.60
2018-04-15T11:26:34.881Z,25.77
2018-04-15T11:27:34.693Z,25.48
2018-04-15T11:28:34.880Z,25.29
2018-04-15T11:29:35.063Z,25.51
2018-04-15T11:30:35.257Z,25.63
2018-04-15T11:31:35.466Z,25.62
2018-04-15T11:32:36.096Z,25.69
2018-04-15T11:33:36.489Z,25.66
2018-04-15T11:34:36.293Z,25.81
2018-04-15T11:35:36.449Z,25.78
2018-04-15T11:36:36.516Z,25.69
2018-04-15T11:37:36.389Z,25.59
2018-04-15T11:38:36.585Z,25.77
2018-04-15T11:39:36.773Z,25.62
2018-04-15T11:40:36.963Z,25.17
2018-04-15T11:41:37.152Z,24.98
2018-04-15T11:42:38.634Z,24.95
2018-04-15T11:43:37.596Z,24.76
2018-04-15T11:44:37.748Z,24.81
2018-04-15T11:45:37.942Z,24.85
2018-04-15T11:46:38.120Z,24.76
2018-04-15T11:47:38.359Z,24.74
2018-04-15T11:48:38.549Z,24.61
2018-04-15T11:49:38.898Z,24.60
2018-04-15T11:50:39.549Z,24.47
2018-04-15T11:51:39.064Z,24.48
2018-04-15T11:52:39.209Z,24.66
2018-04-15T11:53:39.426Z,24.48
2018-04-15T11:54:39.596Z,24.50
2018-04-15T11:55:39.770Z,24.68
2018-04-15T11:56:39.956Z,24.77
2018-04-15T11:57:40.557Z,24.68
2018-04-15T11:58:40.547Z,24.53
2018-04-15T11:59:40.442Z,24.47
2018-04-15T12:00:40.626Z,24.50
2018-04-15T12:01:40.813Z,24.54
2018-04-15T12:02:41.003Z,24.21
2018-04-15T12:03:41.183Z,23.93
2018-04-15T12:04:41.378Z,23.84
2018-04-15T12:05:41.570Z,23.63
2018-04-15T12:06:41.762Z,23.51
2018-04-15T12:07:41.956Z,23.56
2018-04-15T12:08:42.137Z,23.73
2018-04-15T12:09:42.326Z,23.77
2018-04-15T12:10:42.534Z,23.83
2018-04-15T12:11:42.704Z,23.80
2018-04-15T12:12:42.897Z,23.87
2018-04-15T12:13:43.089Z,23.98
2018-04-15T12:14:43.982Z,24.13
2018-04-15T12:15:43.699Z,23.86
2018-04-15T12:16:43.643Z,23.93
2018-04-15T12:17:43.826Z,23.95
2018-04-15T12:18:44.034Z,23.66
2018-04-15T12:19:44.214Z,23.46
2018-04-15T12:20:44.412Z,23.44
2018-04-15T12:21:44.633Z,23.59
2018-04-15T12:22:44.811Z,23.69
2018-04-15T12:23:45.003Z,23.74
2018-04-15T12:24:48.730Z,23.77
2018-04-15T12:25:46.282Z,23.74
2018-04-15T12:26:47.651Z,23.83
2018-04-15T12:27:45.666Z,23.78
2018-04-15T12:28:45.866Z,23.87
2018-04-15T12:29:46.049Z,23.91
2018-04-15T12:30:46.230Z,23.95
2018-04-15T12:31:46.418Z,23.96
2018-04-15T12:32:46.602Z,23.87
2018-04-15T12:33:46.792Z,23.88
2018-04-15T12:34:46.984Z,23.68
2018-04-15T12:35:47.188Z,23.56
2018-04-15T12:36:47.341Z,23.48
2018-04-15T12:37:47.525Z,23.46
2018-04-15T12:38:47.715Z,23.39
2018-04-15T12:39:47.893Z,23.51
2018-04-15T12:40:48.068Z,23.47
2018-04-15T12:41:48.250Z,23.46
2018-04-15T12:42:48.434Z,23.21
2018-04-15T12:43:48.610Z,23.23
2018-04-15T12:44:48.796Z,23.28
2018-04-15T12:45:48.982Z,23.24
2018-04-15T12:46:49.170Z,23.34
2018-04-15T12:47:49.354Z,23.23
2018-04-15T12:48:49.533Z,23.23
2018-04-15T12:49:49.719Z,23.34
2018-04-15T12:50:49.911Z,23.34
2018-04-15T12:51:50.098Z,23.37
2018-04-15T12:52:50.288Z,23.24
2018-04-15T12:53:50.457Z,23.12
2018-04-15T12:54:52.633Z,23.31